sensor_id;sensor_type;location;lat;lon;timestamp;pressure;altitude;pressure_sealevel;temperature;humidity
65010;BME280;51556;50.002;22.014;2023-03-01T00:02:19;100495.36;;;-1.27;65.19
65010;BME280;51556;50.002;22.014;2023-03-01T00:04:44;100499.60;;;-1.25;65.03
65010;BME280;51556;50.002;22.014;2023-03-01T00:07:10;100502.27;;;-1.22;64.94
65010;BME280;51556;50.002;22.014;2023-03-01T00:09:36;100501.24;;;-1.23;64.85
65010;BME280;51556;50.002;22.014;2023-03-01T00:12:02;100497.09;;;-1.23;64.76
65010;BME280;51556;50.002;22.014;2023-03-01T00:14:28;100494.68;;;-1.22;64.79
65010;BME280;51556;50.002;22.014;2023-03-01T00:16:54;100497.83;;;-1.25;64.72
65010;BME280;51556;50.002;22.014;2023-03-01T00:19:20;100498.77;;;-1.28;64.57
65010;BME280;51556;50.002;22.014;2023-03-01T00:21:47;100496.13;;;-1.29;64.52
65010;BME280;51556;50.002;22.014;2023-03-01T00:24:13;100492.45;;;-1.31;64.42
65010;BME280;51556;50.002;22.014;2023-03-01T00:26:39;100489.80;;;-1.28;64.38
65010;BME280;51556;50.002;22.014;2023-03-01T00:29:04;100482.30;;;-1.25;64.34
65010;BME280;51556;50.002;22.014;2023-03-01T00:31:31;100476.70;;;-1.27;64.05
65010;BME280;51556;50.002;22.014;2023-03-01T00:34:02;100472.48;;;-1.29;64.06
65010;BME280;51556;50.002;22.014;2023-03-01T00:36:32;100474.67;;;-1.30;63.99
65010;BME280;51556;50.002;22.014;2023-03-01T00:38:58;100471.73;;;-1.30;63.87
65010;BME280;51556;50.002;22.014;2023-03-01T00:41:24;100468.28;;;-1.30;63.85
65010;BME280;51556;50.002;22.014;2023-03-01T00:43:52;100463.98;;;-1.29;63.80
65010;BME280;51556;50.002;22.014;2023-03-01T00:46:21;100460.24;;;-1.32;63.79
65010;BME280;51556;50.002;22.014;2023-03-01T00:48:47;100457.38;;;-1.40;63.91
65010;BME280;51556;50.002;22.014;2023-03-01T00:51:17;100458.63;;;-1.47;64.06
65010;BME280;51556;50.002;22.014;2023-03-01T00:53:43;100460.91;;;-1.55;64.34
65010;BME280;51556;50.002;22.014;2023-03-01T00:56:10;100460.31;;;-1.57;64.51
65010;BME280;51556;50.002;22.014;2023-03-01T00:58:37;100458.21;;;-1.58;64.41
65010;BME280;51556;50.002;22.014;2023-03-01T01:01:14;100455.45;;;-1.58;64.47
65010;BME280;51556;50.002;22.014;2023-03-01T01:03:45;100449.56;;;-1.62;64.54
65010;BME280;51556;50.002;22.014;2023-03-01T01:06:17;100448.90;;;-1.66;64.49
65010;BME280;51556;50.002;22.014;2023-03-01T01:08:43;100444.92;;;-1.66;64.52
65010;BME280;51556;50.002;22.014;2023-03-01T01:11:10;100451.73;;;-1.68;64.51
65010;BME280;51556;50.002;22.014;2023-03-01T01:13:37;100445.76;;;-1.71;64.56
65010;BME280;51556;50.002;22.014;2023-03-01T01:16:03;100444.91;;;-1.75;64.64
65010;BME280;51556;50.002;22.014;2023-03-01T01:18:28;100443.36;;;-1.78;64.81
65010;BME280;51556;50.002;22.014;2023-03-01T01:20:54;100441.61;;;-1.84;65.00
65010;BME280;51556;50.002;22.014;2023-03-01T01:23:19;100441.20;;;-1.85;65.08
65010;BME280;51556;50.002;22.014;2023-03-01T01:25:45;100441.89;;;-1.85;65.27
65010;BME280;51556;50.002;22.014;2023-03-01T01:28:10;100443.10;;;-1.85;65.10
65010;BME280;51556;50.002;22.014;2023-03-01T01:30:35;100445.70;;;-1.85;65.12
65010;BME280;51556;50.002;22.014;2023-03-01T01:33:01;100439.43;;;-1.86;65.14
65010;BME280;51556;50.002;22.014;2023-03-01T01:35:27;100437.90;;;-1.85;65.14
65010;BME280;51556;50.002;22.014;2023-03-01T01:37:52;100431.51;;;-1.86;65.29
65010;BME280;51556;50.002;22.014;2023-03-01T01:40:18;100429.83;;;-1.89;65.24
65010;BME280;51556;50.002;22.014;2023-03-01T01:42:44;100419.65;;;-1.89;65.11
65010;BME280;51556;50.002;22.014;2023-03-01T01:45:34;100417.29;;;-1.88;65.22
65010;BME280;51556;50.002;22.014;2023-03-01T01:48:13;100420.23;;;-1.95;65.52
65010;BME280;51556;50.002;22.014;2023-03-01T01:50:40;100423.98;;;-1.97;65.44
65010;BME280;51556;50.002;22.014;2023-03-01T01:53:10;100422.80;;;-1.96;65.31
65010;BME280;51556;50.002;22.014;2023-03-01T01:55:42;100418.02;;;-1.95;65.23
65010;BME280;51556;50.002;22.014;2023-03-01T01:58:10;100411.39;;;-1.97;65.39
65010;BME280;51556;50.002;22.014;2023-03-01T02:00:37;100412.45;;;-2.00;65.53
65010;BME280;51556;50.002;22.014;2023-03-01T02:03:10;100415.22;;;-2.04;65.58
65010;BME280;51556;50.002;22.014;2023-03-01T02:08:27;100415.10;;;-2.03;65.72
65010;BME280;51556;50.002;22.014;2023-03-01T02:10:56;100416.34;;;-2.03;65.62
65010;BME280;51556;50.002;22.014;2023-03-01T02:13:22;100413.42;;;-2.06;65.75
65010;BME280;51556;50.002;22.014;2023-03-01T02:15:48;100412.08;;;-2.09;65.80
65010;BME280;51556;50.002;22.014;2023-03-01T02:18:17;100409.96;;;-2.10;65.92
65010;BME280;51556;50.002;22.014;2023-03-01T02:23:33;100408.29;;;-2.17;65.93
65010;BME280;51556;50.002;22.014;2023-03-01T02:28:37;100402.28;;;-2.21;65.97
65010;BME280;51556;50.002;22.014;2023-03-01T02:31:08;100409.11;;;-2.23;65.96
65010;BME280;51556;50.002;22.014;2023-03-01T02:33:53;100413.15;;;-2.25;66.23
65010;BME280;51556;50.002;22.014;2023-03-01T02:36:22;100410.03;;;-2.25;66.08
65010;BME280;51556;50.002;22.014;2023-03-01T02:38:49;100414.65;;;-2.26;66.12
65010;BME280;51556;50.002;22.014;2023-03-01T02:41:17;100415.17;;;-2.30;66.17
65010;BME280;51556;50.002;22.014;2023-03-01T02:43:44;100406.79;;;-2.37;66.14
65010;BME280;51556;50.002;22.014;2023-03-01T02:46:20;100406.02;;;-2.39;66.23
65010;BME280;51556;50.002;22.014;2023-03-01T02:51:21;100408.77;;;-2.47;66.38
65010;BME280;51556;50.002;22.014;2023-03-01T02:56:21;100420.39;;;-2.41;66.54
65010;BME280;51556;50.002;22.014;2023-03-01T02:58:46;100423.30;;;-2.38;66.57
65010;BME280;51556;50.002;22.014;2023-03-01T03:01:17;100431.76;;;-2.34;66.43
65010;BME280;51556;50.002;22.014;2023-03-01T03:03:43;100435.61;;;-2.32;66.12
65010;BME280;51556;50.002;22.014;2023-03-01T03:06:09;100433.73;;;-2.35;65.91
65010;BME280;51556;50.002;22.014;2023-03-01T03:08:35;100436.20;;;-2.35;65.94
65010;BME280;51556;50.002;22.014;2023-03-01T03:11:01;100436.39;;;-2.30;65.73
65010;BME280;51556;50.002;22.014;2023-03-01T03:13:27;100433.83;;;-2.30;65.39
65010;BME280;51556;50.002;22.014;2023-03-01T03:15:57;100425.29;;;-2.35;65.27
65010;BME280;51556;50.002;22.014;2023-03-01T03:18:24;100426.80;;;-2.37;65.49
65010;BME280;51556;50.002;22.014;2023-03-01T03:20:52;100422.52;;;-2.40;65.42
65010;BME280;51556;50.002;22.014;2023-03-01T03:23:25;100424.02;;;-2.41;65.35
65010;BME280;51556;50.002;22.014;2023-03-01T03:25:51;100423.14;;;-2.41;65.15
65010;BME280;51556;50.002;22.014;2023-03-01T03:28:17;100427.96;;;-2.41;65.24
65010;BME280;51556;50.002;22.014;2023-03-01T03:30:43;100425.29;;;-2.39;65.40
65010;BME280;51556;50.002;22.014;2023-03-01T03:33:10;100428.98;;;-2.38;65.23
65010;BME280;51556;50.002;22.014;2023-03-01T03:35:48;100424.53;;;-2.41;65.33
65010;BME280;51556;50.002;22.014;2023-03-01T03:38:16;100430.55;;;-2.45;65.35
65010;BME280;51556;50.002;22.014;2023-03-01T03:41:00;100430.12;;;-2.47;65.49
65010;BME280;51556;50.002;22.014;2023-03-01T03:43:28;100430.04;;;-2.49;65.58
65010;BME280;51556;50.002;22.014;2023-03-01T03:45:54;100434.22;;;-2.52;65.55
65010;BME280;51556;50.002;22.014;2023-03-01T03:48:22;100431.20;;;-2.54;65.67
65010;BME280;51556;50.002;22.014;2023-03-01T03:50:58;100427.29;;;-2.53;65.71
65010;BME280;51556;50.002;22.014;2023-03-01T03:53:26;100422.27;;;-2.57;65.68
65010;BME280;51556;50.002;22.014;2023-03-01T03:55:52;100423.79;;;-2.62;65.78
65010;BME280;51556;50.002;22.014;2023-03-01T03:58:20;100424.72;;;-2.64;65.80
65010;BME280;51556;50.002;22.014;2023-03-01T04:00:48;100420.01;;;-2.70;65.86
65010;BME280;51556;50.002;22.014;2023-03-01T04:03:16;100419.73;;;-2.72;66.06
65010;BME280;51556;50.002;22.014;2023-03-01T04:05:42;100413.73;;;-2.72;65.97
65010;BME280;51556;50.002;22.014;2023-03-01T04:08:08;100414.58;;;-2.72;66.05
65010;BME280;51556;50.002;22.014;2023-03-01T04:10:39;100414.67;;;-2.70;65.97
65010;BME280;51556;50.002;22.014;2023-03-01T04:13:06;100417.42;;;-2.70;65.95
65010;BME280;51556;50.002;22.014;2023-03-01T04:15:33;100413.14;;;-2.73;65.87
65010;BME280;51556;50.002;22.014;2023-03-01T04:17:59;100416.71;;;-2.74;66.01
65010;BME280;51556;50.002;22.014;2023-03-01T04:20:28;100418.06;;;-2.75;66.09
65010;BME280;51556;50.002;22.014;2023-03-01T04:23:10;100418.15;;;-2.77;65.98
65010;BME280;51556;50.002;22.014;2023-03-01T04:25:58;100414.65;;;-2.74;65.86
65010;BME280;51556;50.002;22.014;2023-03-01T04:28:29;100413.77;;;-2.70;65.85
65010;BME280;51556;50.002;22.014;2023-03-01T04:30:58;100419.96;;;-2.66;65.47
65010;BME280;51556;50.002;22.014;2023-03-01T04:33:24;100420.67;;;-2.66;65.23
65010;BME280;51556;50.002;22.014;2023-03-01T04:35:50;100417.92;;;-2.66;65.21
65010;BME280;51556;50.002;22.014;2023-03-01T04:38:17;100427.60;;;-2.61;64.96
65010;BME280;51556;50.002;22.014;2023-03-01T04:40:43;100424.95;;;-2.63;64.69
65010;BME280;51556;50.002;22.014;2023-03-01T04:43:11;100430.97;;;-2.67;64.63
65010;BME280;51556;50.002;22.014;2023-03-01T04:45:39;100425.98;;;-2.71;64.77
65010;BME280;51556;50.002;22.014;2023-03-01T04:48:05;100422.95;;;-2.74;64.49
65010;BME280;51556;50.002;22.014;2023-03-01T04:50:31;100421.22;;;-2.74;64.43
65010;BME280;51556;50.002;22.014;2023-03-01T04:52:57;100414.75;;;-2.72;64.35
65010;BME280;51556;50.002;22.014;2023-03-01T04:55:25;100416.01;;;-2.71;63.95
65010;BME280;51556;50.002;22.014;2023-03-01T04:57:51;100414.63;;;-2.71;63.84
65010;BME280;51556;50.002;22.014;2023-03-01T05:00:17;100411.46;;;-2.72;63.74
65010;BME280;51556;50.002;22.014;2023-03-01T05:02:54;100414.70;;;-2.73;63.63
65010;BME280;51556;50.002;22.014;2023-03-01T05:05:41;100422.54;;;-2.79;63.75
65010;BME280;51556;50.002;22.014;2023-03-01T05:08:07;100424.47;;;-2.89;63.69
65010;BME280;51556;50.002;22.014;2023-03-01T05:10:35;100426.56;;;-2.96;63.68
65010;BME280;51556;50.002;22.014;2023-03-01T05:13:02;100424.41;;;-3.06;63.58
65010;BME280;51556;50.002;22.014;2023-03-01T05:15:30;100423.04;;;-3.13;63.85
65010;BME280;51556;50.002;22.014;2023-03-01T05:17:58;100420.02;;;-3.19;63.82
65010;BME280;51556;50.002;22.014;2023-03-01T05:20:30;100419.08;;;-3.24;63.81
65010;BME280;51556;50.002;22.014;2023-03-01T05:22:58;100425.11;;;-3.27;64.09
65010;BME280;51556;50.002;22.014;2023-03-01T05:25:25;100427.91;;;-3.26;64.03
65010;BME280;51556;50.002;22.014;2023-03-01T05:27:51;100430.98;;;-3.23;64.17
65010;BME280;51556;50.002;22.014;2023-03-01T05:30:17;100433.52;;;-3.21;64.12
65010;BME280;51556;50.002;22.014;2023-03-01T05:32:45;100434.95;;;-3.16;64.01
65010;BME280;51556;50.002;22.014;2023-03-01T05:35:12;100438.16;;;-3.10;63.96
65010;BME280;51556;50.002;22.014;2023-03-01T05:37:42;100436.58;;;-3.04;63.94
65010;BME280;51556;50.002;22.014;2023-03-01T05:40:13;100438.46;;;-3.00;63.94
65010;BME280;51556;50.002;22.014;2023-03-01T05:42:47;100437.66;;;-2.94;63.99
65010;BME280;51556;50.002;22.014;2023-03-01T05:45:14;100436.54;;;-2.92;64.03
65010;BME280;51556;50.002;22.014;2023-03-01T05:47:41;100438.27;;;-2.97;64.15
65010;BME280;51556;50.002;22.014;2023-03-01T05:50:20;100438.85;;;-2.99;64.44
65010;BME280;51556;50.002;22.014;2023-03-01T05:52:48;100441.58;;;-2.95;64.45
65010;BME280;51556;50.002;22.014;2023-03-01T05:55:19;100438.45;;;-2.92;64.48
65010;BME280;51556;50.002;22.014;2023-03-01T05:57:46;100436.73;;;-2.92;64.61
65010;BME280;51556;50.002;22.014;2023-03-01T06:00:13;100434.72;;;-2.99;64.61
65010;BME280;51556;50.002;22.014;2023-03-01T06:02:40;100434.83;;;-3.04;64.77
65010;BME280;51556;50.002;22.014;2023-03-01T06:05:08;100431.08;;;-3.03;64.93
65010;BME280;51556;50.002;22.014;2023-03-01T06:07:34;100428.22;;;-2.98;65.12
65010;BME280;51556;50.002;22.014;2023-03-01T06:10:12;100426.21;;;-3.00;65.29
65010;BME280;51556;50.002;22.014;2023-03-01T06:12:40;100423.38;;;-3.06;65.34
65010;BME280;51556;50.002;22.014;2023-03-01T06:15:07;100420.65;;;-3.09;65.81
65010;BME280;51556;50.002;22.014;2023-03-01T06:17:36;100416.88;;;-3.09;66.30
65010;BME280;51556;50.002;22.014;2023-03-01T06:20:08;100410.39;;;-3.15;66.46
65010;BME280;51556;50.002;22.014;2023-03-01T06:22:33;100404.39;;;-3.14;66.58
65010;BME280;51556;50.002;22.014;2023-03-01T06:24:59;100406.10;;;-3.18;67.60
65010;BME280;51556;50.002;22.014;2023-03-01T06:27:25;100403.29;;;-3.23;67.52
65010;BME280;51556;50.002;22.014;2023-03-01T06:29:50;100396.60;;;-3.19;67.65
65010;BME280;51556;50.002;22.014;2023-03-01T06:32:16;100388.55;;;-3.14;68.22
65010;BME280;51556;50.002;22.014;2023-03-01T06:34:41;100384.95;;;-3.10;68.32
65010;BME280;51556;50.002;22.014;2023-03-01T06:37:07;100379.80;;;-3.10;68.66
65010;BME280;51556;50.002;22.014;2023-03-01T06:39:33;100383.34;;;-3.04;68.51
65010;BME280;51556;50.002;22.014;2023-03-01T06:41:59;100388.28;;;-2.93;68.27
65010;BME280;51556;50.002;22.014;2023-03-01T06:44:25;100383.02;;;-2.84;68.49
65010;BME280;51556;50.002;22.014;2023-03-01T06:46:51;100390.09;;;-2.72;68.46
65010;BME280;51556;50.002;22.014;2023-03-01T06:49:17;100390.77;;;-2.56;68.35
65010;BME280;51556;50.002;22.014;2023-03-01T06:51:43;100394.34;;;-2.41;68.54
65010;BME280;51556;50.002;22.014;2023-03-01T06:54:09;100401.37;;;-2.30;68.36
65010;BME280;51556;50.002;22.014;2023-03-01T06:56:35;100397.30;;;-2.25;68.20
65010;BME280;51556;50.002;22.014;2023-03-01T06:59:01;100396.65;;;-2.19;68.22
65010;BME280;51556;50.002;22.014;2023-03-01T07:01:28;100393.14;;;-2.08;68.39
65010;BME280;51556;50.002;22.014;2023-03-01T07:03:53;100392.59;;;-2.01;68.43
65010;BME280;51556;50.002;22.014;2023-03-01T07:06:19;100393.97;;;-1.92;68.31
65010;BME280;51556;50.002;22.014;2023-03-01T07:08:44;100396.29;;;-1.82;68.36
65010;BME280;51556;50.002;22.014;2023-03-01T07:11:11;100400.23;;;-1.70;68.35
65010;BME280;51556;50.002;22.014;2023-03-01T07:13:37;100395.10;;;-1.60;68.22
65010;BME280;51556;50.002;22.014;2023-03-01T07:16:03;100389.83;;;-1.49;68.18
65010;BME280;51556;50.002;22.014;2023-03-01T07:18:28;100390.77;;;-1.43;68.18
65010;BME280;51556;50.002;22.014;2023-03-01T07:20:54;100388.61;;;-1.31;68.21
65010;BME280;51556;50.002;22.014;2023-03-01T07:23:19;100389.05;;;-1.15;68.04
65010;BME280;51556;50.002;22.014;2023-03-01T07:25:51;100383.59;;;-0.95;67.81
65010;BME280;51556;50.002;22.014;2023-03-01T07:28:17;100378.20;;;-0.82;67.58
65010;BME280;51556;50.002;22.014;2023-03-01T07:30:43;100372.95;;;-0.74;67.54
65010;BME280;51556;50.002;22.014;2023-03-01T07:33:08;100365.32;;;-0.64;67.56
65010;BME280;51556;50.002;22.014;2023-03-01T07:35:34;100363.97;;;-0.53;67.54
65010;BME280;51556;50.002;22.014;2023-03-01T07:37:59;100357.79;;;-0.43;67.26
65010;BME280;51556;50.002;22.014;2023-03-01T07:40:25;100358.85;;;-0.31;67.03
65010;BME280;51556;50.002;22.014;2023-03-01T07:42:55;100358.05;;;-0.20;67.03
65010;BME280;51556;50.002;22.014;2023-03-01T07:45:21;100353.25;;;-0.13;66.82
65010;BME280;51556;50.002;22.014;2023-03-01T07:47:46;100357.37;;;-0.09;66.67
65010;BME280;51556;50.002;22.014;2023-03-01T07:50:12;100354.18;;;-0.00;66.68
65010;BME280;51556;50.002;22.014;2023-03-01T07:52:38;100355.44;;;0.02;66.56
65010;BME280;51556;50.002;22.014;2023-03-01T07:55:13;100355.99;;;0.03;66.81
65010;BME280;51556;50.002;22.014;2023-03-01T07:57:39;100356.76;;;0.05;66.74
65010;BME280;51556;50.002;22.014;2023-03-01T08:00:06;100360.42;;;0.11;66.63
65010;BME280;51556;50.002;22.014;2023-03-01T08:02:32;100361.28;;;0.16;66.88
65010;BME280;51556;50.002;22.014;2023-03-01T08:04:57;100366.66;;;0.22;66.66
65010;BME280;51556;50.002;22.014;2023-03-01T08:07:23;100361.50;;;0.23;66.64
65010;BME280;51556;50.002;22.014;2023-03-01T08:09:48;100360.41;;;0.26;66.74
65010;BME280;51556;50.002;22.014;2023-03-01T08:12:14;100360.92;;;0.32;66.90
65010;BME280;51556;50.002;22.014;2023-03-01T08:14:42;100362.09;;;0.36;66.81
65010;BME280;51556;50.002;22.014;2023-03-01T08:17:07;100367.17;;;0.39;66.75
65010;BME280;51556;50.002;22.014;2023-03-01T08:19:33;100367.55;;;0.45;66.87
65010;BME280;51556;50.002;22.014;2023-03-01T08:22:01;100361.66;;;0.56;66.45
65010;BME280;51556;50.002;22.014;2023-03-01T08:24:27;100360.74;;;0.65;66.40
65010;BME280;51556;50.002;22.014;2023-03-01T08:26:53;100352.25;;;0.78;66.18
65010;BME280;51556;50.002;22.014;2023-03-01T08:29:18;100353.48;;;0.90;66.00
65010;BME280;51556;50.002;22.014;2023-03-01T08:31:44;100357.17;;;1.03;65.78
65010;BME280;51556;50.002;22.014;2023-03-01T08:34:13;100350.98;;;1.17;65.45
65010;BME280;51556;50.002;22.014;2023-03-01T08:36:41;100350.61;;;1.29;65.19
65010;BME280;51556;50.002;22.014;2023-03-01T08:39:08;100346.78;;;1.42;64.98
65010;BME280;51556;50.002;22.014;2023-03-01T08:41:34;100345.86;;;1.53;64.78
65010;BME280;51556;50.002;22.014;2023-03-01T08:44:00;100348.91;;;1.70;64.38
65010;BME280;51556;50.002;22.014;2023-03-01T08:46:32;100348.55;;;1.83;64.16
65010;BME280;51556;50.002;22.014;2023-03-01T08:48:58;100347.41;;;2.00;63.88
65010;BME280;51556;50.002;22.014;2023-03-01T08:51:25;100347.12;;;2.16;63.65
65010;BME280;51556;50.002;22.014;2023-03-01T08:54:00;100347.40;;;2.29;63.31
65010;BME280;51556;50.002;22.014;2023-03-01T08:56:26;100342.95;;;2.40;62.86
65010;BME280;51556;50.002;22.014;2023-03-01T08:58:51;100344.23;;;2.42;62.11
65010;BME280;51556;50.002;22.014;2023-03-01T09:01:18;100342.73;;;2.45;62.24
65010;BME280;51556;50.002;22.014;2023-03-01T09:03:44;100343.61;;;2.52;61.85
65010;BME280;51556;50.002;22.014;2023-03-01T09:06:11;100345.71;;;2.53;61.53
65010;BME280;51556;50.002;22.014;2023-03-01T09:08:41;100342.28;;;2.55;61.53
65010;BME280;51556;50.002;22.014;2023-03-01T09:11:09;100335.34;;;2.64;61.13
65010;BME280;51556;50.002;22.014;2023-03-01T09:13:35;100333.34;;;2.68;61.28
65010;BME280;51556;50.002;22.014;2023-03-01T09:16:02;100333.89;;;2.69;60.97
65010;BME280;51556;50.002;22.014;2023-03-01T09:18:29;100340.82;;;2.76;61.03
65010;BME280;51556;50.002;22.014;2023-03-01T09:21:05;100337.66;;;2.83;60.44
65010;BME280;51556;50.002;22.014;2023-03-01T09:23:41;100338.17;;;2.91;60.21
65010;BME280;51556;50.002;22.014;2023-03-01T09:26:12;100339.06;;;3.01;59.14
65010;BME280;51556;50.002;22.014;2023-03-01T09:28:40;100336.11;;;3.09;58.76
65010;BME280;51556;50.002;22.014;2023-03-01T09:31:09;100337.05;;;3.13;57.91
65010;BME280;51556;50.002;22.014;2023-03-01T09:33:38;100337.80;;;3.15;58.02
65010;BME280;51556;50.002;22.014;2023-03-01T09:36:06;100333.02;;;3.19;57.77
65010;BME280;51556;50.002;22.014;2023-03-01T09:38:33;100331.22;;;3.25;58.12
65010;BME280;51556;50.002;22.014;2023-03-01T09:41:00;100328.95;;;3.34;56.77
65010;BME280;51556;50.002;22.014;2023-03-01T09:43:46;100329.91;;;3.40;55.69
65010;BME280;51556;50.002;22.014;2023-03-01T09:46:14;100328.70;;;3.41;55.42
65010;BME280;51556;50.002;22.014;2023-03-01T09:49:05;100335.29;;;3.48;55.49
65010;BME280;51556;50.002;22.014;2023-03-01T09:51:34;100333.39;;;3.58;54.77
65010;BME280;51556;50.002;22.014;2023-03-01T09:54:04;100334.13;;;3.60;54.14
65010;BME280;51556;50.002;22.014;2023-03-01T09:56:37;100334.44;;;3.58;53.27
65010;BME280;51556;50.002;22.014;2023-03-01T10:04:32;100318.52;;;3.64;51.98
65010;BME280;51556;50.002;22.014;2023-03-01T10:09:36;100310.96;;;3.81;53.47
65010;BME280;51556;50.002;22.014;2023-03-01T10:12:08;100309.98;;;3.94;53.67
65010;BME280;51556;50.002;22.014;2023-03-01T10:14:36;100307.91;;;4.06;53.01
65010;BME280;51556;50.002;22.014;2023-03-01T10:19:45;100304.73;;;4.27;53.09
65010;BME280;51556;50.002;22.014;2023-03-01T10:22:29;100302.70;;;4.43;52.38
65010;BME280;51556;50.002;22.014;2023-03-01T10:25:02;100298.73;;;4.59;52.80
65010;BME280;51556;50.002;22.014;2023-03-01T10:27:53;100300.91;;;4.78;51.53
65010;BME280;51556;50.002;22.014;2023-03-01T10:30:36;100294.76;;;4.89;51.15
65010;BME280;51556;50.002;22.014;2023-03-01T10:33:15;100292.62;;;5.00;50.72
65010;BME280;51556;50.002;22.014;2023-03-01T10:35:42;100294.96;;;5.06;50.09
65010;BME280;51556;50.002;22.014;2023-03-01T10:38:11;100292.27;;;5.15;50.86
65010;BME280;51556;50.002;22.014;2023-03-01T10:40:56;100292.77;;;5.30;51.10
65010;BME280;51556;50.002;22.014;2023-03-01T10:43:23;100287.94;;;5.51;50.85
65010;BME280;51556;50.002;22.014;2023-03-01T10:45:49;100284.85;;;5.60;49.92
65010;BME280;51556;50.002;22.014;2023-03-01T10:48:19;100279.48;;;5.64;48.65
65010;BME280;51556;50.002;22.014;2023-03-01T10:51:05;100273.67;;;5.60;49.20
65010;BME280;51556;50.002;22.014;2023-03-01T10:53:36;100273.45;;;5.74;49.99
65010;BME280;51556;50.002;22.014;2023-03-01T10:56:13;100271.95;;;5.99;50.01
65010;BME280;51556;50.002;22.014;2023-03-01T10:58:59;100265.27;;;6.18;48.20
65010;BME280;51556;50.002;22.014;2023-03-01T11:01:35;100267.98;;;6.31;47.91
65010;BME280;51556;50.002;22.014;2023-03-01T11:06:33;100264.75;;;6.51;47.77
65010;BME280;51556;50.002;22.014;2023-03-01T11:09:17;100256.29;;;6.74;48.02
65010;BME280;51556;50.002;22.014;2023-03-01T11:11:44;100260.77;;;7.04;47.40
65010;BME280;51556;50.002;22.014;2023-03-01T11:14:16;100259.05;;;7.16;45.63
65010;BME280;51556;50.002;22.014;2023-03-01T11:16:45;100258.37;;;7.21;45.84
65010;BME280;51556;50.002;22.014;2023-03-01T11:21:41;100257.52;;;7.41;46.64
65010;BME280;51556;50.002;22.014;2023-03-01T11:24:13;100254.39;;;7.60;45.60
65010;BME280;51556;50.002;22.014;2023-03-01T11:26:42;100252.84;;;7.74;44.84
65010;BME280;51556;50.002;22.014;2023-03-01T11:29:18;100247.38;;;7.91;44.57
65010;BME280;51556;50.002;22.014;2023-03-01T11:31:47;100240.89;;;8.06;42.83
65010;BME280;51556;50.002;22.014;2023-03-01T11:34:19;100237.20;;;8.09;43.20
65010;BME280;51556;50.002;22.014;2023-03-01T11:36:53;100240.88;;;8.15;42.60
65010;BME280;51556;50.002;22.014;2023-03-01T11:39:28;100240.83;;;8.27;42.56
65010;BME280;51556;50.002;22.014;2023-03-01T11:42:06;100237.50;;;8.44;42.55
65010;BME280;51556;50.002;22.014;2023-03-01T11:44:36;100228.14;;;8.59;42.20
65010;BME280;51556;50.002;22.014;2023-03-01T11:55:14;100210.05;;;9.25;41.39
65010;BME280;51556;50.002;22.014;2023-03-01T12:06:12;100200.03;;;9.91;38.59
65010;BME280;51556;50.002;22.014;2023-03-01T12:19:35;100194.32;;;11.83;34.77
65010;BME280;51556;50.002;22.014;2023-03-01T12:24:47;100183.63;;;12.62;32.31
65010;BME280;51556;50.002;22.014;2023-03-01T12:33:10;100162.51;;;13.30;31.05
65010;BME280;51556;50.002;22.014;2023-03-01T12:44:28;100149.16;;;14.89;28.97
65010;BME280;51556;50.002;22.014;2023-03-01T12:49:26;100147.77;;;15.38;27.42
65010;BME280;51556;50.002;22.014;2023-03-01T12:51:58;100146.81;;;15.51;26.33
65010;BME280;51556;50.002;22.014;2023-03-01T12:54:31;100147.34;;;15.40;25.30
65010;BME280;51556;50.002;22.014;2023-03-01T12:57:47;100147.36;;;15.51;27.31
65010;BME280;51556;50.002;22.014;2023-03-01T13:00:03;100146.61;;;15.84;26.75
65010;BME280;51556;50.002;22.014;2023-03-01T13:02:45;100132.88;;;16.26;26.31
65010;BME280;51556;50.002;22.014;2023-03-01T13:05:29;100129.01;;;16.63;26.32
65010;BME280;51556;50.002;22.014;2023-03-01T13:08:28;100132.23;;;16.71;25.44
65010;BME280;51556;50.002;22.014;2023-03-01T13:11:01;100130.06;;;16.86;24.72
65010;BME280;51556;50.002;22.014;2023-03-01T13:13:28;100126.55;;;17.03;23.35
65010;BME280;51556;50.002;22.014;2023-03-01T13:15:55;100122.11;;;17.20;24.74
65010;BME280;51556;50.002;22.014;2023-03-01T13:20:52;100113.49;;;17.90;24.32
65010;BME280;51556;50.002;22.014;2023-03-01T13:26:04;100115.38;;;18.20;22.69
65010;BME280;51556;50.002;22.014;2023-03-01T13:28:51;100114.44;;;18.25;23.20
65010;BME280;51556;50.002;22.014;2023-03-01T13:33:49;100115.66;;;18.25;22.47
65010;BME280;51556;50.002;22.014;2023-03-01T13:46:52;100105.20;;;19.05;21.49
65010;BME280;51556;50.002;22.014;2023-03-01T13:49:21;100104.00;;;18.96;20.63
65010;BME280;51556;50.002;22.014;2023-03-01T13:51:48;100104.63;;;18.68;20.20
65010;BME280;51556;50.002;22.014;2023-03-01T13:54:16;100100.30;;;18.65;21.35
65010;BME280;51556;50.002;22.014;2023-03-01T13:56:46;100099.73;;;18.78;21.34
65010;BME280;51556;50.002;22.014;2023-03-01T13:59:16;100095.52;;;18.72;20.94
65010;BME280;51556;50.002;22.014;2023-03-01T14:01:42;100089.16;;;18.67;20.46
65010;BME280;51556;50.002;22.014;2023-03-01T14:06:49;100090.56;;;18.48;20.61
65010;BME280;51556;50.002;22.014;2023-03-01T14:09:21;100088.49;;;18.43;20.90
65010;BME280;51556;50.002;22.014;2023-03-01T14:12:06;100086.85;;;18.32;21.98
65010;BME280;51556;50.002;22.014;2023-03-01T14:14:50;100081.30;;;18.09;21.20
65010;BME280;51556;50.002;22.014;2023-03-01T14:20:12;100075.35;;;17.49;22.12
65010;BME280;51556;50.002;22.014;2023-03-01T14:22:40;100074.40;;;17.26;21.87
65010;BME280;51556;50.002;22.014;2023-03-01T14:25:30;100073.83;;;16.96;21.90
65010;BME280;51556;50.002;22.014;2023-03-01T14:30:37;100071.56;;;16.73;22.62
65010;BME280;51556;50.002;22.014;2023-03-01T14:33:16;100069.01;;;16.79;23.09
65010;BME280;51556;50.002;22.014;2023-03-01T14:36:06;100066.90;;;16.83;22.76
65010;BME280;51556;50.002;22.014;2023-03-01T14:38:44;100065.61;;;16.79;22.69